createdAt,value
2019-05-07T00:01:23.309Z,65.30
2019-05-07T00:03:53.292Z,66.10
2019-05-07T00:06:23.252Z,66.00
2019-05-07T00:08:53.023Z,66.10
2019-05-07T00:11:22.824Z,66.50
2019-05-07T00:13:53.636Z,66.50
2019-05-07T00:16:23.490Z,66.50
2019-05-07T00:18:53.292Z,66.60
2019-05-07T00:21:23.484Z,66.80
2019-05-07T00:23:53.276Z,67.20
2019-05-07T00:26:22.969Z,67.00
2019-05-07T00:28:52.886Z,67.10
2019-05-07T00:31:23.244Z,66.90
2019-05-07T00:33:53.243Z,67.20
2019-05-07T00:36:42.216Z,67.10
2019-05-07T00:39:22.643Z,67.20
2019-05-07T00:41:59.331Z,67.70
2019-05-07T00:44:29.845Z,67.80
2019-05-07T00:47:02.092Z,68.00
2019-05-07T00:49:33.166Z,68.10
2019-05-07T00:52:03.088Z,68.50
2019-05-07T00:54:32.897Z,68.30
2019-05-07T00:57:03.339Z,68.20
2019-05-07T00:59:34.019Z,68.30
2019-05-07T01:02:03.776Z,68.30
2019-05-07T01:04:33.483Z,68.00
2019-05-07T01:07:03.321Z,68.10
2019-05-07T01:09:43.103Z,67.70
2019-05-07T01:12:12.983Z,67.30
2019-05-07T01:14:43.795Z,67.30
2019-05-07T01:17:13.702Z,67.20
2019-05-07T01:19:43.543Z,66.90
2019-05-07T01:22:13.232Z,67.00
2019-05-07T01:24:43.436Z,67.10
2019-05-07T01:27:13.247Z,67.10
2019-05-07T01:29:43.086Z,67.00
2019-05-07T01:32:30.487Z,67.60
2019-05-07T01:35:06.817Z,67.20
2019-05-07T01:37:36.556Z,67.40
2019-05-07T01:40:12.104Z,67.40
2019-05-07T01:42:42.512Z,67.70
2019-05-07T01:45:24.850Z,67.50
2019-05-07T01:47:54.869Z,67.50
2019-05-07T01:50:24.623Z,68.10
2019-05-07T01:52:54.344Z,68.10
2019-05-07T01:55:24.102Z,67.80
2019-05-07T01:57:53.803Z,68.00
2019-05-07T02:00:24.027Z,67.70
2019-05-07T02:02:59.795Z,67.70
2019-05-07T02:05:46.180Z,67.90
2019-05-07T02:08:22.222Z,68.10
2019-05-07T02:11:02.088Z,68.50
2019-05-07T02:13:33.817Z,68.30
2019-05-07T02:16:04.238Z,68.50
2019-05-07T02:18:34.270Z,68.50
2019-05-07T02:21:04.123Z,68.00
2019-05-07T02:23:33.886Z,68.10
2019-05-07T02:26:03.740Z,68.30
2019-05-07T02:28:33.588Z,68.20
2019-05-07T02:31:04.107Z,68.10
2019-05-07T02:33:35.133Z,68.30
2019-05-07T02:36:04.304Z,68.30
2019-05-07T02:38:48.300Z,68.30
2019-05-07T02:41:23.417Z,68.30
2019-05-07T02:43:53.725Z,68.30
2019-05-07T02:46:32.940Z,68.50
2019-05-07T02:49:13.505Z,68.20
2019-05-07T02:51:53.139Z,68.40
2019-05-07T02:54:32.909Z,68.40
2019-05-07T02:57:03.581Z,68.80
2019-05-07T02:59:33.837Z,68.90
2019-05-07T03:02:03.916Z,68.80
2019-05-07T03:04:33.606Z,69.00
2019-05-07T03:07:04.080Z,69.00
2019-05-07T03:09:33.785Z,69.80
2019-05-07T03:12:04.117Z,69.40
2019-05-07T03:14:33.921Z,69.50
2019-05-07T03:17:03.812Z,70.00
2019-05-07T03:19:35.303Z,70.40
2019-05-07T03:22:05.158Z,70.80
2019-05-07T03:24:46.855Z,70.90
2019-05-07T03:27:16.586Z,71.10
2019-05-07T03:29:54.093Z,71.30
2019-05-07T03:32:37.867Z,71.00
2019-05-07T03:35:27.989Z,71.30
2019-05-07T03:37:58.187Z,71.30
2019-05-07T03:40:28.898Z,72.10
2019-05-07T03:43:01.845Z,72.40
2019-05-07T03:45:58.065Z,72.50
2019-05-07T03:48:28.860Z,72.00
2019-05-07T03:50:58.539Z,71.80
2019-05-07T03:53:28.329Z,72.00
2019-05-07T03:55:58.205Z,72.30
2019-05-07T03:58:27.995Z,71.70
2019-05-07T04:01:03.929Z,72.30
2019-05-07T04:03:34.144Z,72.20
2019-05-07T04:06:03.995Z,72.00
2019-05-07T04:08:33.969Z,72.20
2019-05-07T04:11:04.184Z,72.10
2019-05-07T04:13:34.126Z,72.20
2019-05-07T04:16:04.446Z,72.30
2019-05-07T04:18:34.395Z,72.20
2019-05-07T04:21:04.426Z,72.00
2019-05-07T04:23:34.641Z,72.10
2019-05-07T04:26:16.328Z,72.00
2019-05-07T04:29:06.600Z,71.70
2019-05-07T04:31:43.027Z,71.80
2019-05-07T04:34:23.775Z,71.90
2019-05-07T04:36:53.471Z,71.80
2019-05-07T04:39:23.554Z,71.90
2019-05-07T04:42:05.442Z,72.50
2019-05-07T04:44:39.303Z,72.30
2019-05-07T04:47:08.936Z,72.30
2019-05-07T04:49:38.518Z,72.70
2019-05-07T04:52:15.371Z,72.70
2019-05-07T04:54:45.240Z,72.50
2019-05-07T04:57:26.932Z,72.70
2019-05-07T04:59:58.537Z,72.80
2019-05-07T05:02:46.013Z,72.50
2019-05-07T05:05:16.500Z,72.60
2019-05-07T05:07:46.108Z,72.80
2019-05-07T05:10:15.692Z,72.80
2019-05-07T05:12:46.351Z,72.80
2019-05-07T05:15:15.956Z,72.30
2019-05-07T05:17:50.929Z,72.40
2019-05-07T05:20:22.195Z,72.30
2019-05-07T05:23:07.187Z,72.50
2019-05-07T05:25:43.281Z,75.20
2019-05-07T05:28:16.653Z,72.80
2019-05-07T05:30:55.839Z,72.30
2019-05-07T05:33:25.427Z,72.00
2019-05-07T05:35:55.015Z,71.80
2019-05-07T05:38:24.583Z,71.50
2019-05-07T05:40:55.984Z,71.10
2019-05-07T05:43:52.838Z,70.40
2019-05-07T05:46:24.633Z,70.20
2019-05-07T05:48:56.741Z,70.00
2019-05-07T05:51:48.053Z,70.20
2019-05-07T05:54:37.050Z,69.70
2019-05-07T05:57:25.820Z,69.40
2019-05-07T06:03:27.380Z,68.70
2019-05-07T06:06:03.771Z,67.50
2019-05-07T06:08:52.509Z,67.00
2019-05-07T06:11:38.339Z,66.60
2019-05-07T06:14:13.037Z,66.40
2019-05-07T06:16:56.520Z,66.10
2019-05-07T06:19:38.586Z,64.60
2019-05-07T06:22:39.647Z,64.20
2019-05-07T06:25:16.225Z,64.30
2019-05-07T06:27:45.906Z,65.00
2019-05-07T06:30:16.826Z,65.30
2019-05-07T06:32:45.718Z,63.70
2019-05-07T06:35:19.331Z,62.70
2019-05-07T06:37:48.882Z,61.70
2019-05-07T06:40:46.864Z,61.60
2019-05-07T06:43:42.048Z,61.30
2019-05-07T06:46:12.521Z,60.60
2019-05-07T06:48:45.940Z,60.20
2019-05-07T06:51:17.669Z,60.50
2019-05-07T06:53:47.784Z,60.70
2019-05-07T06:56:45.431Z,61.20
2019-05-07T06:59:22.516Z,60.90
2019-05-07T07:02:05.343Z,60.90
2019-05-07T07:04:52.098Z,60.90
2019-05-07T07:07:37.027Z,60.50
2019-05-07T07:10:26.877Z,59.70
2019-05-07T07:12:56.687Z,59.10
2019-05-07T07:15:26.658Z,59.30
2019-05-07T07:18:02.982Z,58.20
2019-05-07T07:20:32.735Z,57.70
2019-05-07T07:23:02.504Z,57.90
2019-05-07T07:25:32.703Z,58.20
2019-05-07T07:28:04.590Z,57.60
2019-05-07T07:30:42.079Z,55.60
2019-05-07T07:33:12.230Z,55.80
2019-05-07T07:35:42.828Z,55.50
2019-05-07T07:38:32.670Z,54.40
2019-05-07T07:41:13.730Z,53.80
2019-05-07T07:43:43.351Z,53.40
2019-05-07T07:46:18.810Z,53.90
2019-05-07T07:49:03.179Z,54.50
2019-05-07T07:51:34.300Z,53.90
2019-05-07T07:53:55.919Z,52.50
2019-05-07T07:57:02.382Z,52.50
2019-05-07T07:59:53.998Z,51.30
2019-05-07T08:02:42.441Z,52.60
2019-05-07T08:05:12.667Z,52.80
2019-05-07T08:07:42.770Z,51.70
2019-05-07T08:10:13.025Z,50.10
2019-05-07T08:12:43.003Z,48.80
2019-05-07T08:15:18.055Z,48.30
2019-05-07T08:18:13.768Z,48.30
2019-05-07T08:20:53.666Z,48.50
2019-05-07T08:23:24.189Z,46.50
2019-05-07T08:25:57.267Z,46.20
2019-05-07T08:28:32.250Z,46.20
2019-05-07T08:31:26.568Z,46.00
2019-05-07T08:34:15.386Z,45.50
2019-05-07T08:36:46.293Z,45.50
2019-05-07T08:39:15.720Z,45.20
2019-05-07T08:41:49.529Z,45.10
2019-05-07T08:44:22.305Z,44.60
2019-05-07T08:47:23.455Z,44.40
2019-05-07T08:49:52.476Z,47.60
2019-05-07T08:52:23.405Z,43.90
2019-05-07T08:54:54.329Z,44.00
2019-05-07T08:57:24.585Z,42.80
2019-05-07T09:00:00.861Z,42.60
2019-05-07T09:02:26.774Z,42.80
2019-05-07T09:04:56.780Z,41.70
2019-05-07T09:07:26.582Z,41.70
2019-05-07T09:09:56.198Z,41.20
2019-05-07T09:12:25.766Z,42.10
2019-05-07T09:14:57.456Z,41.40
2019-05-07T09:17:26.983Z,41.70
2019-05-07T09:19:56.643Z,42.50
2019-05-07T09:22:26.293Z,43.10
2019-05-07T09:24:55.851Z,44.20
2019-05-07T09:27:37.759Z,44.80
2019-05-07T09:30:52.557Z,45.20
2019-05-07T09:33:39.265Z,48.40
2019-05-07T09:36:22.809Z,46.10
2019-05-07T09:38:56.947Z,45.60
2019-05-07T09:41:32.693Z,44.70
2019-05-07T09:44:03.153Z,43.90
2019-05-07T09:46:33.987Z,43.20
2019-05-07T09:49:03.565Z,44.30
2019-05-07T09:51:33.248Z,44.20
2019-05-07T09:54:02.850Z,43.60
2019-05-07T09:56:32.465Z,43.50
2019-05-07T09:59:02.298Z,43.80
2019-05-07T10:01:32.152Z,43.80
2019-05-07T10:04:02.621Z,43.60
2019-05-07T10:06:33.420Z,43.80
2019-05-07T10:09:03.181Z,44.20
2019-05-07T10:11:39.439Z,44.30
2019-05-07T10:14:12.395Z,44.40
2019-05-07T10:17:02.740Z,44.20
2019-05-07T10:19:33.726Z,43.60
2019-05-07T10:22:12.450Z,43.20
2019-05-07T10:24:43.607Z,42.60
2019-05-07T10:27:14.393Z,41.60
2019-05-07T10:29:44.937Z,41.90
2019-05-07T10:32:15.562Z,42.20
2019-05-07T10:34:45.166Z,39.80
2019-05-07T10:37:14.817Z,39.60
2019-05-07T10:39:44.539Z,40.80
2019-05-07T10:42:14.251Z,40.50
2019-05-07T10:44:52.435Z,40.50
2019-05-07T10:47:44.174Z,40.70
2019-05-07T10:50:38.020Z,40.80
2019-05-07T10:52:57.823Z,39.10
2019-05-07T10:55:27.412Z,39.00
2019-05-07T10:57:57.063Z,40.00
2019-05-07T11:00:27.295Z,39.50
2019-05-07T11:02:56.930Z,39.30
2019-05-07T11:05:26.599Z,40.20
2019-05-07T11:07:56.599Z,39.50
2019-05-07T11:10:26.433Z,40.30
2019-05-07T11:12:56.264Z,38.80
2019-05-07T11:15:28.261Z,38.40
2019-05-07T11:18:08.233Z,39.70
2019-05-07T11:20:47.414Z,40.50
2019-05-07T11:23:13.211Z,43.30
2019-05-07T11:25:43.590Z,40.70
2019-05-07T11:28:16.381Z,40.80
2019-05-07T11:30:46.122Z,40.30
2019-05-07T11:33:15.771Z,40.60
2019-05-07T11:35:49.470Z,38.10
2019-05-07T11:38:22.275Z,37.70
2019-05-07T11:40:51.770Z,38.40
2019-05-07T11:43:46.373Z,37.80
2019-05-07T11:46:22.093Z,39.10
2019-05-07T11:49:11.554Z,37.90
2019-05-07T11:51:51.699Z,37.50
2019-05-07T11:54:21.339Z,34.30
2019-05-07T11:56:58.345Z,33.90
2019-05-07T11:59:27.955Z,35.10
2019-05-07T12:02:02.121Z,34.00
2019-05-07T12:04:32.105Z,31.90
2019-05-07T12:07:02.568Z,34.00
2019-05-07T12:09:33.260Z,36.10
2019-05-07T12:12:03.008Z,36.90
2019-05-07T12:14:34.955Z,37.40
2019-05-07T12:17:03.887Z,35.20
2019-05-07T12:19:35.694Z,34.80
2019-05-07T12:22:06.377Z,34.20
2019-05-07T12:24:36.084Z,33.60
2019-05-07T12:27:05.635Z,34.50
2019-05-07T12:29:35.182Z,34.00
2019-05-07T12:32:18.547Z,33.80
2019-05-07T12:34:52.651Z,33.20
2019-05-07T12:37:22.506Z,31.60
2019-05-07T12:39:52.766Z,28.70
2019-05-07T12:42:22.484Z,28.70
2019-05-07T12:44:53.134Z,30.20
2019-05-07T12:47:22.673Z,31.00
2019-05-07T12:49:52.382Z,32.60
2019-05-07T12:52:26.247Z,32.40
2019-05-07T12:55:03.228Z,31.40
2019-05-07T12:57:42.153Z,32.30
2019-05-07T13:00:29.631Z,30.90
2019-05-07T13:03:24.327Z,29.20
2019-05-07T13:05:54.013Z,29.00
2019-05-07T13:08:23.610Z,29.10
2019-05-07T13:10:53.244Z,30.00
2019-05-07T13:13:23.095Z,30.70
2019-05-07T13:15:54.449Z,30.90
2019-05-07T13:18:24.460Z,31.10
2019-05-07T13:20:55.350Z,31.60
2019-05-07T13:23:24.944Z,29.40
2019-05-07T13:25:54.521Z,28.30
2019-05-07T13:28:24.171Z,29.20
2019-05-07T13:30:53.786Z,29.30
2019-05-07T13:33:31.628Z,28.90
2019-05-07T13:36:02.304Z,29.10
2019-05-07T13:38:37.966Z,29.50
2019-05-07T13:41:14.983Z,29.70
2019-05-07T13:44:03.069Z,29.30
2019-05-07T13:46:33.397Z,29.70
2019-05-07T13:49:03.011Z,30.40
2019-05-07T13:51:33.987Z,30.40
2019-05-07T13:54:03.872Z,29.30
2019-05-07T13:56:33.483Z,28.70
2019-05-07T13:59:05.029Z,28.90
2019-05-07T14:01:41.144Z,29.60
2019-05-07T14:04:12.749Z,29.20
2019-05-07T14:06:43.278Z,28.90
2019-05-07T14:09:28.058Z,28.90
2019-05-07T14:11:57.889Z,29.50
2019-05-07T14:14:27.554Z,28.60
2019-05-07T14:16:57.288Z,29.10
2019-05-07T14:19:26.925Z,29.10
2019-05-07T14:21:56.543Z,30.00
2019-05-07T14:24:26.288Z,30.70
2019-05-07T14:26:56.148Z,30.80
2019-05-07T14:29:26.689Z,31.10
2019-05-07T14:32:04.030Z,30.90
2019-05-07T14:34:36.091Z,32.00
2019-05-07T14:37:22.513Z,31.00
2019-05-07T14:39:52.231Z,30.20
2019-05-07T14:42:28.960Z,30.20
2019-05-07T14:44:58.579Z,30.30
2019-05-07T14:47:28.191Z,30.90
2019-05-07T14:49:57.847Z,31.30
2019-05-07T14:52:36.193Z,29.80
2019-05-07T14:55:06.588Z,29.70
2019-05-07T14:57:36.235Z,29.60
2019-05-07T15:00:06.285Z,29.60
2019-05-07T15:02:36.983Z,29.10
2019-05-07T15:05:07.886Z,29.20
2019-05-07T15:07:38.499Z,29.20
2019-05-07T15:10:08.203Z,29.00
2019-05-07T15:12:37.847Z,27.90
2019-05-07T15:15:07.588Z,28.60
2019-05-07T15:17:44.642Z,28.70
2019-05-07T15:20:16.394Z,28.90
2019-05-07T15:22:57.415Z,28.10
2019-05-07T15:25:28.005Z,27.60
2019-05-07T15:27:58.739Z,26.70
2019-05-07T15:30:33.892Z,26.60
2019-05-07T15:33:03.501Z,26.90
2019-05-07T15:35:33.148Z,27.00
2019-05-07T15:38:04.907Z,26.40
2019-05-07T15:40:34.506Z,26.70
2019-05-07T15:43:04.228Z,27.50
2019-05-07T15:45:33.832Z,27.10
2019-05-07T15:48:04.479Z,26.80
2019-05-07T15:50:34.065Z,26.70
2019-05-07T15:53:25.726Z,26.60
2019-05-07T15:55:55.379Z,26.50
2019-05-07T15:58:26.571Z,26.20
2019-05-07T16:00:58.163Z,26.40
2019-05-07T16:03:38.135Z,26.50
2019-05-07T16:06:07.824Z,26.50
2019-05-07T16:08:42.875Z,26.40
2019-05-07T16:11:15.865Z,26.20
2019-05-07T16:13:52.444Z,26.20
2019-05-07T16:16:23.573Z,26.30
2019-05-07T16:19:06.075Z,28.50
2019-05-07T16:21:35.833Z,25.90
2019-05-07T16:24:05.914Z,26.00
2019-05-07T16:26:35.775Z,26.20
2019-05-07T16:32:32.810Z,25.90
2019-05-07T16:35:32.098Z,26.10
2019-05-07T16:38:02.047Z,26.30
2019-05-07T16:40:32.446Z,26.50
2019-05-07T16:43:03.765Z,26.80
2019-05-07T16:45:43.722Z,26.80
2019-05-07T16:48:18.260Z,26.60
2019-05-07T16:51:12.670Z,27.10
2019-05-07T16:53:45.159Z,27.60
2019-05-07T16:56:17.103Z,27.40
2019-05-07T17:02:15.835Z,26.70
2019-05-07T17:05:07.523Z,26.90
2019-05-07T17:07:42.701Z,27.30
2019-05-07T17:10:12.432Z,27.40
2019-05-07T17:12:43.766Z,27.60
2019-05-07T17:15:13.497Z,27.60
2019-05-07T17:17:43.407Z,27.70
2019-05-07T17:20:13.279Z,27.60
2019-05-07T17:22:43.986Z,27.80
2019-05-07T17:25:33.405Z,28.10
2019-05-07T17:28:03.109Z,28.70
2019-05-07T17:30:32.848Z,28.80
2019-05-07T17:33:02.432Z,29.40
2019-05-07T17:35:34.403Z,29.60
2019-05-07T17:38:09.002Z,29.50
2019-05-07T17:40:36.310Z,30.00
2019-05-07T17:43:05.968Z,36.80
2019-05-07T17:45:37.675Z,31.20
2019-05-07T17:48:07.496Z,30.50
2019-05-07T17:50:42.971Z,30.70
2019-05-07T17:53:13.643Z,30.80
2019-05-07T17:55:43.285Z,31.20
2019-05-07T17:58:13.061Z,32.00
2019-05-07T18:00:44.280Z,32.70
2019-05-07T18:03:33.119Z,33.00
2019-05-07T18:06:05.924Z,33.00
2019-05-07T18:08:36.629Z,33.60
2019-05-07T18:11:17.434Z,33.40
2019-05-07T18:13:37.910Z,34.00
2019-05-07T18:16:24.391Z,34.10
2019-05-07T18:18:55.112Z,34.60
2019-05-07T18:21:26.967Z,34.80
2019-05-07T18:24:11.257Z,35.30
2019-05-07T18:26:30.914Z,35.60
2019-05-07T18:29:02.455Z,36.00
2019-05-07T18:31:48.995Z,36.20
2019-05-07T18:34:18.928Z,36.10
2019-05-07T18:36:49.936Z,36.50
2019-05-07T18:39:20.682Z,36.70
2019-05-07T18:41:52.423Z,37.60
2019-05-07T18:44:23.275Z,37.90
2019-05-07T18:46:52.890Z,37.50
2019-05-07T18:49:22.677Z,37.50
2019-05-07T18:51:52.343Z,37.20
2019-05-07T18:54:30.292Z,37.40
2019-05-07T18:56:53.575Z,37.90
2019-05-07T18:59:27.892Z,37.90
2019-05-07T19:01:57.715Z,37.90
2019-05-07T19:04:30.100Z,38.10
2019-05-07T19:06:58.871Z,38.30
2019-05-07T19:09:28.704Z,38.30
2019-05-07T19:11:59.445Z,39.00
2019-05-07T19:14:28.578Z,38.50
2019-05-07T19:16:58.280Z,38.50
2019-05-07T19:19:27.922Z,45.70
2019-05-07T19:21:57.755Z,40.20
2019-05-07T19:24:40.822Z,38.80
2019-05-07T19:26:58.788Z,38.60
2019-05-07T19:29:29.372Z,38.50
2019-05-07T19:31:59.103Z,38.50
2019-05-07T19:34:32.474Z,39.00
2019-05-07T19:37:02.674Z,39.10
2019-05-07T19:39:33.556Z,39.40
2019-05-07T19:42:03.434Z,39.80
2019-05-07T19:44:38.256Z,40.10
2019-05-07T19:47:07.866Z,40.30
2019-05-07T19:49:38.623Z,40.70
2019-05-07T19:52:08.513Z,40.90
2019-05-07T19:55:00.436Z,41.00
2019-05-07T19:57:26.550Z,41.10
2019-05-07T19:59:57.183Z,41.40
2019-05-07T20:02:32.149Z,41.40
2019-05-07T20:05:03.527Z,40.90
2019-05-07T20:07:33.376Z,41.10
2019-05-07T20:10:03.084Z,41.10
2019-05-07T20:12:32.820Z,41.10
2019-05-07T20:15:05.836Z,41.30
2019-05-07T20:17:37.746Z,41.20
2019-05-07T20:20:09.464Z,41.10
2019-05-07T20:22:40.195Z,41.20
2019-05-07T20:25:16.394Z,41.60
2019-05-07T20:27:42.179Z,42.00
2019-05-07T20:30:12.909Z,41.90
2019-05-07T20:32:44.648Z,42.10
2019-05-07T20:35:16.277Z,42.20
2019-05-07T20:37:45.939Z,44.80
2019-05-07T20:40:17.147Z,42.80
2019-05-07T20:42:46.715Z,42.50
2019-05-07T20:45:16.232Z,42.50
2019-05-07T20:47:45.959Z,42.70
2019-05-07T20:50:15.559Z,43.50
2019-05-07T20:52:47.772Z,43.00
2019-05-07T20:55:33.213Z,43.10
2019-05-07T20:58:00.240Z,43.10
2019-05-07T21:00:32.594Z,43.70
2019-05-07T21:03:23.813Z,43.80
2019-05-07T21:05:53.372Z,43.90
2019-05-07T21:08:23.212Z,44.00
2019-05-07T21:10:53.807Z,43.90
2019-05-07T21:13:30.910Z,45.70
2019-05-07T21:15:54.981Z,45.90
2019-05-07T21:18:24.586Z,45.60
2019-05-07T21:20:54.182Z,45.50
2019-05-07T21:23:23.778Z,45.90
2019-05-07T21:25:53.419Z,46.00
2019-05-07T21:28:23.210Z,46.40
2019-05-07T21:30:52.854Z,46.30
2019-05-07T21:33:22.990Z,46.30
2019-05-07T21:35:52.685Z,46.50
2019-05-07T21:38:22.636Z,46.50
2019-05-07T21:40:52.310Z,46.40
2019-05-07T21:43:22.971Z,46.60
2019-05-07T21:45:53.617Z,46.80
2019-05-07T21:48:23.214Z,47.00
2019-05-07T21:50:54.575Z,47.20
2019-05-07T21:53:29.614Z,46.90
2019-05-07T21:56:22.845Z,47.20
2019-05-07T21:59:03.012Z,47.30
2019-05-07T22:01:36.363Z,47.60
2019-05-07T22:04:06.003Z,47.80
2019-05-07T22:06:35.573Z,47.90
2019-05-07T22:09:07.432Z,48.10
2019-05-07T22:11:37.113Z,48.50
2019-05-07T22:14:06.718Z,48.50
2019-05-07T22:16:36.347Z,48.50
2019-05-07T22:19:06.122Z,48.90
2019-05-07T22:21:35.702Z,48.40
2019-05-07T22:24:05.335Z,48.60
2019-05-07T22:26:35.032Z,48.80
2019-05-07T22:29:04.558Z,48.90
2019-05-07T22:31:56.470Z,49.00
2019-05-07T22:34:33.477Z,49.00
2019-05-07T22:37:04.402Z,49.10
2019-05-07T22:39:35.576Z,49.20
2019-05-07T22:42:06.743Z,49.30
2019-05-07T22:44:36.395Z,49.60
2019-05-07T22:47:22.708Z,49.80
2019-05-07T22:49:53.572Z,50.00
2019-05-07T22:52:27.300Z,50.30
2019-05-07T22:54:57.020Z,50.30
2019-05-07T22:57:54.693Z,49.90
2019-05-07T23:00:42.534Z,49.70
2019-05-07T23:03:12.409Z,49.70
2019-05-07T23:05:44.979Z,50.00
2019-05-07T23:08:14.829Z,50.00
2019-05-07T23:10:44.669Z,50.20
2019-05-07T23:13:14.319Z,50.10
2019-05-07T23:15:43.936Z,50.30
2019-05-07T23:18:13.536Z,50.30
2019-05-07T23:20:43.075Z,50.40
2019-05-07T23:23:14.217Z,50.70
2019-05-07T23:25:44.001Z,50.80
2019-05-07T23:28:14.615Z,51.00
2019-05-07T23:30:44.412Z,50.90
2019-05-07T23:33:14.046Z,51.10
2019-05-07T23:35:43.589Z,51.20
2019-05-07T23:38:15.913Z,51.40
2019-05-07T23:40:56.069Z,52.10
2019-05-07T23:43:25.653Z,51.60
2019-05-07T23:45:55.283Z,51.60
2019-05-07T23:48:24.936Z,51.40
2019-05-07T23:50:55.536Z,51.60
2019-05-07T23:53:25.160Z,51.50
2019-05-07T23:55:54.730Z,51.70
2019-05-07T23:58:24.356Z,51.90
